sensor_id;sensor_type;location;lat;lon;timestamp;pressure;altitude;pressure_sealevel;temperature;humidity
80137;BME280;69466;55.948;37.484;2023-07-22T00:01:09;98845.06;;;13.63;71.45
80137;BME280;69466;55.948;37.484;2023-07-22T00:03:35;98846.06;;;13.57;71.66
80137;BME280;69466;55.948;37.484;2023-07-22T00:06:09;98843.63;;;13.55;71.49
80137;BME280;69466;55.948;37.484;2023-07-22T00:08:35;98845.78;;;13.53;71.76
80137;BME280;69466;55.948;37.484;2023-07-22T00:11:03;98844.13;;;13.52;71.87
80137;BME280;69466;55.948;37.484;2023-07-22T00:13:29;98842.16;;;13.48;71.87
80137;BME280;69466;55.948;37.484;2023-07-22T00:15:56;98841.63;;;13.46;71.95
80137;BME280;69466;55.948;37.484;2023-07-22T00:18:22;98840.56;;;13.47;71.80
80137;BME280;69466;55.948;37.484;2023-07-22T00:20:49;98841.03;;;13.44;72.00
80137;BME280;69466;55.948;37.484;2023-07-22T00:23:17;98839.09;;;13.39;72.14
80137;BME280;69466;55.948;37.484;2023-07-22T00:25:43;98843.41;;;13.35;72.18
80137;BME280;69466;55.948;37.484;2023-07-22T00:28:09;98843.69;;;13.34;72.12
80137;BME280;69466;55.948;37.484;2023-07-22T00:30:35;98849.44;;;13.37;72.25
80137;BME280;69466;55.948;37.484;2023-07-22T00:33:02;98852.94;;;13.32;72.38
80137;BME280;69466;55.948;37.484;2023-07-22T00:35:28;98854.00;;;13.31;72.33
80137;BME280;69466;55.948;37.484;2023-07-22T00:37:53;98856.44;;;13.28;72.38
80137;BME280;69466;55.948;37.484;2023-07-22T00:40:20;98860.78;;;13.29;72.19
80137;BME280;69466;55.948;37.484;2023-07-22T00:42:46;98852.88;;;13.27;72.70
80137;BME280;69466;55.948;37.484;2023-07-22T00:45:12;98862.38;;;13.25;72.37
80137;BME280;69466;55.948;37.484;2023-07-22T00:47:38;98862.94;;;13.27;72.53
80137;BME280;69466;55.948;37.484;2023-07-22T00:50:07;98858.25;;;13.22;72.15
80137;BME280;69466;55.948;37.484;2023-07-22T00:52:33;98857.44;;;13.22;72.10
80137;BME280;69466;55.948;37.484;2023-07-22T00:55:00;98858.78;;;13.19;72.44
80137;BME280;69466;55.948;37.484;2023-07-22T00:57:32;98853.00;;;13.16;72.44
80137;BME280;69466;55.948;37.484;2023-07-22T00:59:58;98867.72;;;13.15;72.56
80137;BME280;69466;55.948;37.484;2023-07-22T01:02:25;98857.56;;;13.10;72.81
80137;BME280;69466;55.948;37.484;2023-07-22T01:04:51;98860.28;;;13.10;72.62
80137;BME280;69466;55.948;37.484;2023-07-22T01:07:18;98864.06;;;13.09;72.61
80137;BME280;69466;55.948;37.484;2023-07-22T01:09:44;98846.25;;;13.02;72.46
80137;BME280;69466;55.948;37.484;2023-07-22T01:12:11;98857.22;;;13.07;72.86
80137;BME280;69466;55.948;37.484;2023-07-22T01:14:39;98864.91;;;13.10;72.77
80137;BME280;69466;55.948;37.484;2023-07-22T01:17:08;98868.44;;;13.10;72.54
80137;BME280;69466;55.948;37.484;2023-07-22T01:19:35;98868.44;;;13.10;72.70
80137;BME280;69466;55.948;37.484;2023-07-22T01:22:03;98856.91;;;13.03;72.89
80137;BME280;69466;55.948;37.484;2023-07-22T01:24:30;98864.56;;;13.06;72.74
80137;BME280;69466;55.948;37.484;2023-07-22T01:26:57;98869.22;;;13.06;72.64
80137;BME280;69466;55.948;37.484;2023-07-22T01:29:23;98874.13;;;13.09;72.93
80137;BME280;69466;55.948;37.484;2023-07-22T01:31:54;98885.28;;;13.07;72.88
80137;BME280;69466;55.948;37.484;2023-07-22T01:34:21;98882.25;;;13.04;73.07
80137;BME280;69466;55.948;37.484;2023-07-22T01:36:49;98877.31;;;13.01;73.25
80137;BME280;69466;55.948;37.484;2023-07-22T01:39:15;98885.78;;;13.04;72.77
80137;BME280;69466;55.948;37.484;2023-07-22T01:41:42;98884.13;;;13.03;72.90
80137;BME280;69466;55.948;37.484;2023-07-22T01:44:08;98893.13;;;13.04;72.90
80137;BME280;69466;55.948;37.484;2023-07-22T01:46:34;98893.13;;;13.04;73.09
80137;BME280;69466;55.948;37.484;2023-07-22T01:49:00;98894.78;;;13.05;73.02
80137;BME280;69466;55.948;37.484;2023-07-22T01:51:27;98888.22;;;13.01;72.97
80137;BME280;69466;55.948;37.484;2023-07-22T01:53:53;98894.22;;;13.03;72.87
80137;BME280;69466;55.948;37.484;2023-07-22T01:56:23;98892.91;;;13.05;73.04
80137;BME280;69466;55.948;37.484;2023-07-22T01:58:50;98897.81;;;13.08;72.94
80137;BME280;69466;55.948;37.484;2023-07-22T02:01:17;98898.81;;;13.02;73.31
80137;BME280;69466;55.948;37.484;2023-07-22T02:03:43;98911.13;;;13.05;73.31
80137;BME280;69466;55.948;37.484;2023-07-22T02:06:08;98904.84;;;13.04;73.14
80137;BME280;69466;55.948;37.484;2023-07-22T02:08:35;98894.53;;;13.06;73.13
80137;BME280;69466;55.948;37.484;2023-07-22T02:11:06;98903.38;;;13.13;72.93
80137;BME280;69466;55.948;37.484;2023-07-22T02:13:34;98901.47;;;13.14;72.87
80137;BME280;69466;55.948;37.484;2023-07-22T02:16:01;98895.50;;;13.17;72.90
80137;BME280;69466;55.948;37.484;2023-07-22T02:18:28;98902.84;;;13.16;72.73
80137;BME280;69466;55.948;37.484;2023-07-22T02:20:54;98902.91;;;13.21;72.67
80137;BME280;69466;55.948;37.484;2023-07-22T02:23:21;98905.09;;;13.19;72.88
80137;BME280;69466;55.948;37.484;2023-07-22T02:25:51;98907.06;;;13.24;72.71
80137;BME280;69466;55.948;37.484;2023-07-22T02:28:18;98901.41;;;13.30;72.30
80137;BME280;69466;55.948;37.484;2023-07-22T02:31:01;98906.09;;;13.35;72.08
80137;BME280;69466;55.948;37.484;2023-07-22T02:33:30;98895.25;;;13.40;72.22
80137;BME280;69466;55.948;37.484;2023-07-22T02:35:56;98896.19;;;13.51;71.78
80137;BME280;69466;55.948;37.484;2023-07-22T02:38:22;98897.63;;;13.58;71.50
80137;BME280;69466;55.948;37.484;2023-07-22T02:40:48;98904.47;;;13.61;71.32
80137;BME280;69466;55.948;37.484;2023-07-22T02:43:20;98903.75;;;13.70;71.14
80137;BME280;69466;55.948;37.484;2023-07-22T02:45:45;98912.34;;;13.84;70.71
80137;BME280;69466;55.948;37.484;2023-07-22T02:48:11;98916.00;;;13.95;70.56
80137;BME280;69466;55.948;37.484;2023-07-22T02:50:37;98911.41;;;14.32;69.66
80137;BME280;69466;55.948;37.484;2023-07-22T02:53:03;98916.75;;;15.48;65.87
80137;BME280;69466;55.948;37.484;2023-07-22T02:55:30;98912.53;;;16.83;61.15
80137;BME280;69466;55.948;37.484;2023-07-22T02:57:56;98895.16;;;18.22;56.60
80137;BME280;69466;55.948;37.484;2023-07-22T03:00:22;98911.25;;;19.43;52.65
80137;BME280;69466;55.948;37.484;2023-07-22T03:02:56;98913.16;;;20.60;49.63
80137;BME280;69466;55.948;37.484;2023-07-22T03:05:31;98907.09;;;21.73;46.74
80137;BME280;69466;55.948;37.484;2023-07-22T03:08:00;98915.22;;;22.41;44.74
80137;BME280;69466;55.948;37.484;2023-07-22T03:10:26;98912.56;;;23.11;43.41
80137;BME280;69466;55.948;37.484;2023-07-22T03:12:55;98910.81;;;23.55;42.06
80137;BME280;69466;55.948;37.484;2023-07-22T03:15:25;98915.03;;;24.52;40.17
80137;BME280;69466;55.948;37.484;2023-07-22T03:17:52;98923.63;;;25.31;39.10
80137;BME280;69466;55.948;37.484;2023-07-22T03:20:18;98923.06;;;25.55;37.90
80137;BME280;69466;55.948;37.484;2023-07-22T03:22:46;98920.69;;;25.95;37.04
80137;BME280;69466;55.948;37.484;2023-07-22T03:25:14;98917.41;;;26.22;36.11
80137;BME280;69466;55.948;37.484;2023-07-22T03:27:43;98915.81;;;26.75;35.25
80137;BME280;69466;55.948;37.484;2023-07-22T03:30:13;98914.88;;;27.16;34.89
80137;BME280;69466;55.948;37.484;2023-07-22T03:32:45;98917.22;;;27.26;34.32
80137;BME280;69466;55.948;37.484;2023-07-22T03:35:13;98922.03;;;27.50;34.13
80137;BME280;69466;55.948;37.484;2023-07-22T03:37:40;98926.53;;;27.78;33.74
80137;BME280;69466;55.948;37.484;2023-07-22T03:40:07;98920.69;;;27.96;33.38
80137;BME280;69466;55.948;37.484;2023-07-22T03:42:54;98923.38;;;27.92;33.12
80137;BME280;69466;55.948;37.484;2023-07-22T03:45:21;98919.53;;;27.97;32.95
80137;BME280;69466;55.948;37.484;2023-07-22T03:47:58;98926.78;;;27.61;33.52
80137;BME280;69466;55.948;37.484;2023-07-22T03:50:27;98930.69;;;26.58;34.55
80137;BME280;69466;55.948;37.484;2023-07-22T03:52:53;98931.13;;;25.77;36.27
80137;BME280;69466;55.948;37.484;2023-07-22T03:55:19;98939.44;;;25.77;36.53
80137;BME280;69466;55.948;37.484;2023-07-22T03:57:45;98931.91;;;26.07;36.51
80137;BME280;69466;55.948;37.484;2023-07-22T04:00:12;98937.66;;;26.85;34.90
80137;BME280;69466;55.948;37.484;2023-07-22T04:02:39;98947.47;;;27.60;33.37
80137;BME280;69466;55.948;37.484;2023-07-22T04:05:07;98938.72;;;28.10;33.10
80137;BME280;69466;55.948;37.484;2023-07-22T04:07:33;98941.47;;;28.75;31.72
80137;BME280;69466;55.948;37.484;2023-07-22T04:10:00;98937.38;;;28.44;31.54
80137;BME280;69466;55.948;37.484;2023-07-22T04:12:26;98942.06;;;28.28;32.21
80137;BME280;69466;55.948;37.484;2023-07-22T04:14:52;98947.00;;;28.47;32.01
80137;BME280;69466;55.948;37.484;2023-07-22T04:17:18;98940.69;;;28.10;32.47
80137;BME280;69466;55.948;37.484;2023-07-22T04:19:43;98945.59;;;27.89;33.35
80137;BME280;69466;55.948;37.484;2023-07-22T04:22:13;98942.47;;;27.66;33.46
80137;BME280;69466;55.948;37.484;2023-07-22T04:24:40;98958.28;;;27.86;33.00
80137;BME280;69466;55.948;37.484;2023-07-22T04:27:06;98939.03;;;28.61;32.23
80137;BME280;69466;55.948;37.484;2023-07-22T04:29:33;98947.81;;;28.87;31.77
80137;BME280;69466;55.948;37.484;2023-07-22T04:32:06;98946.13;;;29.42;30.82
80137;BME280;69466;55.948;37.484;2023-07-22T04:34:32;98941.16;;;30.17;29.90
80137;BME280;69466;55.948;37.484;2023-07-22T04:36:59;98944.34;;;30.35;29.31
80137;BME280;69466;55.948;37.484;2023-07-22T04:39:26;98945.28;;;30.77;28.85
80137;BME280;69466;55.948;37.484;2023-07-22T04:41:52;98947.50;;;30.88;28.87
80137;BME280;69466;55.948;37.484;2023-07-22T04:44:19;98945.88;;;31.06;28.73
80137;BME280;69466;55.948;37.484;2023-07-22T04:46:45;98945.63;;;30.95;28.40
80137;BME280;69466;55.948;37.484;2023-07-22T04:49:11;98952.09;;;31.18;27.97
80137;BME280;69466;55.948;37.484;2023-07-22T04:51:37;98953.25;;;31.37;28.00
80137;BME280;69466;55.948;37.484;2023-07-22T04:54:03;98956.84;;;31.37;27.53
80137;BME280;69466;55.948;37.484;2023-07-22T04:56:30;98955.63;;;31.80;27.03
80137;BME280;69466;55.948;37.484;2023-07-22T04:58:56;98959.13;;;31.74;27.58
80137;BME280;69466;55.948;37.484;2023-07-22T05:01:23;98957.19;;;32.04;27.24
80137;BME280;69466;55.948;37.484;2023-07-22T05:03:48;98961.59;;;31.33;27.59
80137;BME280;69466;55.948;37.484;2023-07-22T05:06:15;98956.88;;;30.22;29.42
80137;BME280;69466;55.948;37.484;2023-07-22T05:08:41;98953.75;;;28.86;31.50
80137;BME280;69466;55.948;37.484;2023-07-22T05:11:08;98953.44;;;28.35;32.11
80137;BME280;69466;55.948;37.484;2023-07-22T05:13:34;98958.75;;;27.76;33.20
80137;BME280;69466;55.948;37.484;2023-07-22T05:15:59;98960.13;;;27.82;33.39
80137;BME280;69466;55.948;37.484;2023-07-22T05:18:25;98943.75;;;27.56;33.46
80137;BME280;69466;55.948;37.484;2023-07-22T05:20:51;98951.81;;;27.25;33.95
80137;BME280;69466;55.948;37.484;2023-07-22T05:23:17;98948.06;;;27.09;34.74
80137;BME280;69466;55.948;37.484;2023-07-22T05:25:43;98953.50;;;27.05;34.59
80137;BME280;69466;55.948;37.484;2023-07-22T05:28:09;98963.88;;;27.17;34.34
80137;BME280;69466;55.948;37.484;2023-07-22T05:30:34;98953.56;;;27.42;34.68
80137;BME280;69466;55.948;37.484;2023-07-22T05:33:01;98948.63;;;27.71;34.22
80137;BME280;69466;55.948;37.484;2023-07-22T05:35:27;98948.44;;;28.81;32.80
80137;BME280;69466;55.948;37.484;2023-07-22T05:37:53;98947.09;;;29.34;31.23
80137;BME280;69466;55.948;37.484;2023-07-22T05:40:20;98948.09;;;29.73;30.79
80137;BME280;69466;55.948;37.484;2023-07-22T05:42:46;98945.13;;;30.16;29.32
80137;BME280;69466;55.948;37.484;2023-07-22T05:45:14;98956.13;;;30.60;29.22
80137;BME280;69466;55.948;37.484;2023-07-22T05:47:41;98948.19;;;31.23;28.65
80137;BME280;69466;55.948;37.484;2023-07-22T05:50:08;98941.22;;;31.59;27.71
80137;BME280;69466;55.948;37.484;2023-07-22T05:52:34;98952.88;;;32.36;27.30
80137;BME280;69466;55.948;37.484;2023-07-22T05:55:00;98943.88;;;32.24;27.34
80137;BME280;69466;55.948;37.484;2023-07-22T05:57:29;98947.34;;;31.64;27.83
80137;BME280;69466;55.948;37.484;2023-07-22T05:59:55;98940.19;;;31.93;27.14
80137;BME280;69466;55.948;37.484;2023-07-22T06:02:20;98951.06;;;31.72;27.85
80137;BME280;69466;55.948;37.484;2023-07-22T06:04:46;98946.16;;;31.65;28.23
80137;BME280;69466;55.948;37.484;2023-07-22T06:07:13;98944.03;;;31.59;28.10
80137;BME280;69466;55.948;37.484;2023-07-22T06:09:39;98950.31;;;31.30;28.57
80137;BME280;69466;55.948;37.484;2023-07-22T06:12:06;98943.34;;;31.65;28.40
80137;BME280;69466;55.948;37.484;2023-07-22T06:14:32;98952.16;;;31.90;27.66
80137;BME280;69466;55.948;37.484;2023-07-22T06:16:59;98946.50;;;31.87;27.69
80137;BME280;69466;55.948;37.484;2023-07-22T06:19:25;98943.28;;;31.85;27.46
80137;BME280;69466;55.948;37.484;2023-07-22T06:21:50;98947.28;;;32.10;27.17
80137;BME280;69466;55.948;37.484;2023-07-22T06:24:16;98948.97;;;31.92;27.46
80137;BME280;69466;55.948;37.484;2023-07-22T06:26:42;98950.16;;;32.43;26.89
80137;BME280;69466;55.948;37.484;2023-07-22T06:29:08;98954.53;;;32.67;27.02
80137;BME280;69466;55.948;37.484;2023-07-22T06:31:34;98938.63;;;32.52;25.99
80137;BME280;69466;55.948;37.484;2023-07-22T06:34:00;98953.59;;;32.30;26.81
80137;BME280;69466;55.948;37.484;2023-07-22T06:36:26;98949.75;;;32.45;26.28
80137;BME280;69466;55.948;37.484;2023-07-22T06:38:52;98940.78;;;32.32;27.09
80137;BME280;69466;55.948;37.484;2023-07-22T06:41:18;98939.44;;;32.52;26.43
80137;BME280;69466;55.948;37.484;2023-07-22T06:43:45;98943.00;;;32.76;26.37
80137;BME280;69466;55.948;37.484;2023-07-22T06:46:11;98947.69;;;32.68;25.68
80137;BME280;69466;55.948;37.484;2023-07-22T06:48:37;98939.91;;;32.28;26.00
80137;BME280;69466;55.948;37.484;2023-07-22T06:51:02;98936.00;;;32.36;26.43
80137;BME280;69466;55.948;37.484;2023-07-22T06:53:29;98945.78;;;31.67;26.56
80137;BME280;69466;55.948;37.484;2023-07-22T06:55:58;98944.41;;;31.80;26.44
80137;BME280;69466;55.948;37.484;2023-07-22T06:58:23;98938.53;;;31.43;26.92
80137;BME280;69466;55.948;37.484;2023-07-22T07:00:54;98938.06;;;31.87;25.75
80137;BME280;69466;55.948;37.484;2023-07-22T07:03:22;98942.47;;;31.84;26.37
80137;BME280;69466;55.948;37.484;2023-07-22T07:05:52;98939.41;;;31.47;26.71
80137;BME280;69466;55.948;37.484;2023-07-22T07:08:18;98947.09;;;31.73;26.30
80137;BME280;69466;55.948;37.484;2023-07-22T07:10:44;98932.72;;;31.78;25.87
80137;BME280;69466;55.948;37.484;2023-07-22T07:13:10;98932.09;;;31.88;25.77
80137;BME280;69466;55.948;37.484;2023-07-22T07:15:36;98939.38;;;30.63;27.70
80137;BME280;69466;55.948;37.484;2023-07-22T07:18:02;98953.22;;;30.37;28.71
80137;BME280;69466;55.948;37.484;2023-07-22T07:20:29;98949.31;;;30.80;28.21
80137;BME280;69466;55.948;37.484;2023-07-22T07:22:54;98944.41;;;30.93;27.93
80137;BME280;69466;55.948;37.484;2023-07-22T07:25:22;98936.53;;;30.79;28.19
80137;BME280;69466;55.948;37.484;2023-07-22T07:27:48;98938.03;;;31.15;27.92
80137;BME280;69466;55.948;37.484;2023-07-22T07:30:16;98938.81;;;31.35;27.46
80137;BME280;69466;55.948;37.484;2023-07-22T07:32:41;98939.28;;;31.17;27.63
80137;BME280;69466;55.948;37.484;2023-07-22T07:35:08;98945.34;;;30.81;28.02
80137;BME280;69466;55.948;37.484;2023-07-22T07:37:36;98932.78;;;30.52;28.45
80137;BME280;69466;55.948;37.484;2023-07-22T07:40:06;98931.16;;;29.50;29.57
80137;BME280;69466;55.948;37.484;2023-07-22T07:42:32;98938.63;;;28.47;31.31
80137;BME280;69466;55.948;37.484;2023-07-22T07:44:58;98940.72;;;27.86;32.13
80137;BME280;69466;55.948;37.484;2023-07-22T07:47:23;98937.16;;;27.04;33.22
80137;BME280;69466;55.948;37.484;2023-07-22T07:49:49;98946.09;;;27.54;32.59
80137;BME280;69466;55.948;37.484;2023-07-22T07:52:15;98932.72;;;28.48;31.02
80137;BME280;69466;55.948;37.484;2023-07-22T07:54:41;98934.56;;;28.84;30.71
80137;BME280;69466;55.948;37.484;2023-07-22T07:57:07;98928.25;;;29.31;30.59
80137;BME280;69466;55.948;37.484;2023-07-22T07:59:34;98929.16;;;29.50;30.06
80137;BME280;69466;55.948;37.484;2023-07-22T08:02:01;98920.66;;;29.47;29.67
80137;BME280;69466;55.948;37.484;2023-07-22T08:04:28;98921.84;;;29.62;29.79
80137;BME280;69466;55.948;37.484;2023-07-22T08:06:54;98924.44;;;29.86;29.42
80137;BME280;69466;55.948;37.484;2023-07-22T08:09:20;98928.13;;;29.27;29.59
80137;BME280;69466;55.948;37.484;2023-07-22T08:11:47;98929.13;;;28.76;30.55
80137;BME280;69466;55.948;37.484;2023-07-22T08:14:14;98934.63;;;28.72;30.74
80137;BME280;69466;55.948;37.484;2023-07-22T08:16:40;98936.28;;;28.09;31.19
80137;BME280;69466;55.948;37.484;2023-07-22T08:19:06;98935.47;;;27.96;31.86
80137;BME280;69466;55.948;37.484;2023-07-22T08:21:31;98929.19;;;27.87;31.86
80137;BME280;69466;55.948;37.484;2023-07-22T08:23:57;98928.63;;;27.69;31.91
80137;BME280;69466;55.948;37.484;2023-07-22T08:26:24;98924.56;;;27.79;31.75
80137;BME280;69466;55.948;37.484;2023-07-22T08:28:51;98926.19;;;27.92;31.25
80137;BME280;69466;55.948;37.484;2023-07-22T08:31:17;98938.50;;;28.15;31.10
80137;BME280;69466;55.948;37.484;2023-07-22T08:33:42;98930.16;;;28.43;31.06
80137;BME280;69466;55.948;37.484;2023-07-22T08:36:08;98930.34;;;28.23;30.48
80137;BME280;69466;55.948;37.484;2023-07-22T08:38:34;98939.53;;;27.87;31.31
80137;BME280;69466;55.948;37.484;2023-07-22T08:41:00;98921.16;;;27.37;31.75
80137;BME280;69466;55.948;37.484;2023-07-22T08:43:27;98927.50;;;27.01;33.12
80137;BME280;69466;55.948;37.484;2023-07-22T08:46:00;98937.38;;;27.11;32.14
80137;BME280;69466;55.948;37.484;2023-07-22T08:48:30;98927.63;;;26.72;33.58
80137;BME280;69466;55.948;37.484;2023-07-22T08:51:07;98927.38;;;26.98;32.47
80137;BME280;69466;55.948;37.484;2023-07-22T08:53:35;98915.44;;;26.97;33.02
80137;BME280;69466;55.948;37.484;2023-07-22T08:56:02;98933.16;;;26.93;33.50
80137;BME280;69466;55.948;37.484;2023-07-22T08:58:29;98927.06;;;27.11;33.06
80137;BME280;69466;55.948;37.484;2023-07-22T09:00:56;98926.22;;;26.99;33.99
80137;BME280;69466;55.948;37.484;2023-07-22T09:03:22;98943.13;;;26.40;34.52
80137;BME280;69466;55.948;37.484;2023-07-22T09:05:49;98936.69;;;26.27;34.69
80137;BME280;69466;55.948;37.484;2023-07-22T09:08:15;98939.44;;;25.77;35.92
80137;BME280;69466;55.948;37.484;2023-07-22T09:10:43;98934.72;;;25.40;36.11
80137;BME280;69466;55.948;37.484;2023-07-22T09:13:09;98944.94;;;25.19;36.65
80137;BME280;69466;55.948;37.484;2023-07-22T09:15:36;98952.31;;;25.06;37.69
80137;BME280;69466;55.948;37.484;2023-07-22T09:18:03;98944.47;;;25.08;38.14
80137;BME280;69466;55.948;37.484;2023-07-22T09:20:31;98946.91;;;25.09;37.48
80137;BME280;69466;55.948;37.484;2023-07-22T09:22:58;98944.75;;;25.24;37.72
80137;BME280;69466;55.948;37.484;2023-07-22T09:25:29;98927.16;;;25.11;37.38
80137;BME280;69466;55.948;37.484;2023-07-22T09:27:58;98945.44;;;25.21;37.05
80137;BME280;69466;55.948;37.484;2023-07-22T09:30:26;98942.06;;;25.36;36.46
80137;BME280;69466;55.948;37.484;2023-07-22T09:32:54;98943.28;;;25.17;35.67
80137;BME280;69466;55.948;37.484;2023-07-22T09:35:21;98944.44;;;25.25;36.19
80137;BME280;69466;55.948;37.484;2023-07-22T09:37:47;98938.09;;;25.54;35.88
80137;BME280;69466;55.948;37.484;2023-07-22T09:40:20;98942.44;;;25.26;35.98
80137;BME280;69466;55.948;37.484;2023-07-22T09:42:51;98946.81;;;24.97;36.02
80137;BME280;69466;55.948;37.484;2023-07-22T09:45:18;98948.63;;;24.50;36.87
80137;BME280;69466;55.948;37.484;2023-07-22T09:47:46;98942.75;;;24.43;36.76
80137;BME280;69466;55.948;37.484;2023-07-22T09:50:14;98930.50;;;24.70;36.50
80137;BME280;69466;55.948;37.484;2023-07-22T09:52:57;98934.25;;;24.57;36.76
80137;BME280;69466;55.948;37.484;2023-07-22T09:55:29;98936.34;;;24.94;36.54
80137;BME280;69466;55.948;37.484;2023-07-22T09:57:56;98937.69;;;24.88;36.41
80137;BME280;69466;55.948;37.484;2023-07-22T10:00:24;98946.31;;;24.52;36.62
80137;BME280;69466;55.948;37.484;2023-07-22T10:02:52;98926.56;;;24.62;36.75
80137;BME280;69466;55.948;37.484;2023-07-22T10:05:25;98948.13;;;24.48;37.04
80137;BME280;69466;55.948;37.484;2023-07-22T10:07:54;98944.19;;;24.58;35.94
80137;BME280;69466;55.948;37.484;2023-07-22T10:10:32;98944.69;;;24.60;36.07
80137;BME280;69466;55.948;37.484;2023-07-22T10:12:59;98934.09;;;24.45;36.13
80137;BME280;69466;55.948;37.484;2023-07-22T10:15:28;98951.56;;;24.28;36.93
80137;BME280;69466;55.948;37.484;2023-07-22T10:17:55;98950.53;;;24.15;36.63
80137;BME280;69466;55.948;37.484;2023-07-22T10:20:23;98949.09;;;24.18;36.67
80137;BME280;69466;55.948;37.484;2023-07-22T10:22:50;98939.09;;;24.00;37.12
80137;BME280;69466;55.948;37.484;2023-07-22T10:25:20;98951.56;;;24.28;36.80
80137;BME280;69466;55.948;37.484;2023-07-22T10:27:48;98942.56;;;24.48;36.90
80137;BME280;69466;55.948;37.484;2023-07-22T10:30:17;98949.59;;;24.63;37.22
80137;BME280;69466;55.948;37.484;2023-07-22T10:32:51;98938.81;;;24.61;35.67
80137;BME280;69466;55.948;37.484;2023-07-22T10:38:15;98939.13;;;24.68;35.91
80137;BME280;69466;55.948;37.484;2023-07-22T10:40:53;98945.00;;;24.67;35.74
80137;BME280;69466;55.948;37.484;2023-07-22T10:43:30;98948.63;;;24.59;35.09
80137;BME280;69466;55.948;37.484;2023-07-22T10:45:58;98952.22;;;24.59;35.27
80137;BME280;69466;55.948;37.484;2023-07-22T10:48:34;98955.97;;;24.46;34.92
80137;BME280;69466;55.948;37.484;2023-07-22T10:51:07;98947.31;;;24.39;34.54
80137;BME280;69466;55.948;37.484;2023-07-22T10:53:42;98946.84;;;24.46;33.83
80137;BME280;69466;55.948;37.484;2023-07-22T11:04:22;98949.91;;;24.79;33.89
80137;BME280;69466;55.948;37.484;2023-07-22T11:07:07;98946.63;;;24.77;34.06
80137;BME280;69466;55.948;37.484;2023-07-22T11:09:36;98955.81;;;24.51;33.90
80137;BME280;69466;55.948;37.484;2023-07-22T11:17:14;98949.91;;;24.53;35.02
80137;BME280;69466;55.948;37.484;2023-07-22T11:19:40;98952.06;;;24.47;34.69
80137;BME280;69466;55.948;37.484;2023-07-22T11:22:06;98945.03;;;24.58;34.69
80137;BME280;69466;55.948;37.484;2023-07-22T11:24:34;98947.75;;;24.84;34.38
80137;BME280;69466;55.948;37.484;2023-07-22T11:27:05;98956.06;;;24.84;34.08
80137;BME280;69466;55.948;37.484;2023-07-22T11:29:32;98951.22;;;24.72;34.09
80137;BME280;69466;55.948;37.484;2023-07-22T11:31:58;98947.31;;;24.65;33.90
80137;BME280;69466;55.948;37.484;2023-07-22T11:34:24;98947.13;;;24.61;33.61
80137;BME280;69466;55.948;37.484;2023-07-22T11:36:52;98941.75;;;24.65;33.49
80137;BME280;69466;55.948;37.484;2023-07-22T11:39:21;98950.19;;;24.86;33.48
80137;BME280;69466;55.948;37.484;2023-07-22T11:41:48;98956.44;;;24.91;34.34
80137;BME280;69466;55.948;37.484;2023-07-22T11:44:16;98958.72;;;24.89;33.62
80137;BME280;69466;55.948;37.484;2023-07-22T11:49:30;98953.31;;;24.76;33.43
80137;BME280;69466;55.948;37.484;2023-07-22T11:52:17;98960.84;;;24.49;33.60
80137;BME280;69466;55.948;37.484;2023-07-22T11:54:44;98951.56;;;24.28;33.63
80137;BME280;69466;55.948;37.484;2023-07-22T11:57:21;98940.59;;;24.14;33.35
80137;BME280;69466;55.948;37.484;2023-07-22T11:59:52;98951.69;;;24.06;33.59
80137;BME280;69466;55.948;37.484;2023-07-22T12:02:23;98950.75;;;24.19;33.75
80137;BME280;69466;55.948;37.484;2023-07-22T12:04:57;98945.16;;;24.10;33.94
80137;BME280;69466;55.948;37.484;2023-07-22T12:07:33;98958.00;;;23.98;33.72
80137;BME280;69466;55.948;37.484;2023-07-22T12:10:06;98968.75;;;23.82;33.49
80137;BME280;69466;55.948;37.484;2023-07-22T12:12:50;98981.53;;;23.61;34.50
80137;BME280;69466;55.948;37.484;2023-07-22T12:15:21;98982.28;;;23.44;35.55
80137;BME280;69466;55.948;37.484;2023-07-22T12:18:01;98989.13;;;23.47;36.31
80137;BME280;69466;55.948;37.484;2023-07-22T12:20:31;98995.25;;;23.04;38.44
80137;BME280;69466;55.948;37.484;2023-07-22T12:22:59;98999.25;;;22.53;42.08
80137;BME280;69466;55.948;37.484;2023-07-22T12:25:25;99003.91;;;21.95;44.08
80137;BME280;69466;55.948;37.484;2023-07-22T12:27:52;99001.41;;;21.80;45.43
80137;BME280;69466;55.948;37.484;2023-07-22T12:30:19;99003.25;;;21.71;45.79
80137;BME280;69466;55.948;37.484;2023-07-22T12:32:46;99023.59;;;21.47;46.16
80137;BME280;69466;55.948;37.484;2023-07-22T12:35:12;99022.84;;;21.28;47.11
80137;BME280;69466;55.948;37.484;2023-07-22T12:37:39;99019.25;;;20.95;48.40
80137;BME280;69466;55.948;37.484;2023-07-22T12:40:05;99018.31;;;20.86;48.01
80137;BME280;69466;55.948;37.484;2023-07-22T12:42:35;99000.50;;;20.78;47.18
80137;BME280;69466;55.948;37.484;2023-07-22T12:45:03;98990.69;;;20.72;47.35
80137;BME280;69466;55.948;37.484;2023-07-22T12:47:32;98986.16;;;20.95;46.12
80137;BME280;69466;55.948;37.484;2023-07-22T12:50:00;98984.41;;;20.99;46.69
80137;BME280;69466;55.948;37.484;2023-07-22T12:52:30;98987.38;;;21.21;47.24
80137;BME280;69466;55.948;37.484;2023-07-22T12:54:59;98970.59;;;21.32;47.81
80137;BME280;69466;55.948;37.484;2023-07-22T12:57:25;98981.25;;;21.38;48.59
80137;BME280;69466;55.948;37.484;2023-07-22T12:59:51;98980.34;;;21.43;47.83
80137;BME280;69466;55.948;37.484;2023-07-22T13:02:18;98982.47;;;21.32;47.34
80137;BME280;69466;55.948;37.484;2023-07-22T13:04:44;98975.84;;;21.33;47.76
80137;BME280;69466;55.948;37.484;2023-07-22T13:07:12;98972.88;;;21.30;47.62
80137;BME280;69466;55.948;37.484;2023-07-22T13:09:45;98973.16;;;21.28;47.56
80137;BME280;69466;55.948;37.484;2023-07-22T13:12:13;98964.16;;;21.22;48.48